createdAt,value
2019-01-19T00:02:19.462Z,4.52
2019-01-19T00:05:25.880Z,4.52
2019-01-19T00:07:55.604Z,4.45
2019-01-19T00:10:46.886Z,4.30
2019-01-19T00:13:25.352Z,4.34
2019-01-19T00:16:12.664Z,4.34
2019-01-19T00:18:54.375Z,4.30
2019-01-19T00:21:35.776Z,4.35
2019-01-19T00:24:11.200Z,4.39
2019-01-19T00:26:50.104Z,4.36
2019-01-19T00:29:19.764Z,4.32
2019-01-19T00:32:01.372Z,4.28
2019-01-19T00:34:51.687Z,4.24
2019-01-19T00:37:27.147Z,4.29
2019-01-19T00:40:18.889Z,4.20
2019-01-19T00:42:48.575Z,4.20
2019-01-19T00:45:26.947Z,4.32
2019-01-19T00:48:22.350Z,4.32
2019-01-19T00:50:55.872Z,4.32
2019-01-19T00:53:34.680Z,4.27
2019-01-19T00:56:13.348Z,4.27
2019-01-19T00:58:43.041Z,4.46
2019-01-19T01:01:24.451Z,4.46
2019-01-19T01:04:06.141Z,4.32
2019-01-19T01:07:08.003Z,4.40
2019-01-19T01:09:58.310Z,4.23
2019-01-19T01:13:00.063Z,4.23
2019-01-19T01:15:44.862Z,4.21
2019-01-19T01:18:14.677Z,4.24
2019-01-19T01:20:47.126Z,4.27
2019-01-19T01:23:33.613Z,4.27
2019-01-19T01:26:37.155Z,4.25
2019-01-19T01:29:21.954Z,4.25
2019-01-19T01:31:54.408Z,4.23
2019-01-19T01:34:36.176Z,4.32
2019-01-19T01:37:23.818Z,4.32
2019-01-19T01:40:28.847Z,4.42
2019-01-19T01:43:07.693Z,4.56
2019-01-19T01:46:04.986Z,4.56
2019-01-19T01:48:49.275Z,4.59
2019-01-19T01:51:27.636Z,4.51
2019-01-19T01:54:18.512Z,4.55
2019-01-19T01:56:44.387Z,4.52
2019-01-19T01:59:29.468Z,4.64
2019-01-19T02:02:08.409Z,4.51
2019-01-19T02:04:54.717Z,4.36
2019-01-19T02:07:41.243Z,4.34
2019-01-19T02:10:25.998Z,4.54
2019-01-19T02:13:07.971Z,4.54
2019-01-19T02:15:40.827Z,4.55
2019-01-19T02:18:28.693Z,4.40
2019-01-19T02:21:01.148Z,4.40
2019-01-19T02:23:49.150Z,4.45
2019-01-19T02:26:30.565Z,4.60
2019-01-19T02:29:26.415Z,4.60
2019-01-19T02:32:15.996Z,4.54
2019-01-19T02:34:48.393Z,4.46
2019-01-19T02:37:18.077Z,4.51
2019-01-19T02:40:05.595Z,4.40
2019-01-19T02:42:47.114Z,4.45
2019-01-19T02:45:39.671Z,4.51
2019-01-19T02:48:43.211Z,4.57
2019-01-19T02:51:40.824Z,4.65
2019-01-19T02:54:29.007Z,4.63
2019-01-19T02:57:27.968Z,4.44
2019-01-19T03:00:06.215Z,4.40
2019-01-19T03:02:38.815Z,4.46
2019-01-19T03:05:08.489Z,4.44
2019-01-19T03:07:40.921Z,4.52
2019-01-19T03:10:13.303Z,4.56
2019-01-19T03:12:43.126Z,4.54
2019-01-19T03:15:22.168Z,4.55
2019-01-19T03:18:08.420Z,4.58
2019-01-19T03:20:50.160Z,4.61
2019-01-19T03:23:28.475Z,4.60
2019-01-19T03:25:58.161Z,4.61
2019-01-19T03:28:30.622Z,4.62
2019-01-19T03:31:20.088Z,4.60
2019-01-19T03:33:55.890Z,4.57
2019-01-19T03:36:28.153Z,4.52
2019-01-19T03:39:31.635Z,4.46
2019-01-19T03:42:27.148Z,4.57
2019-01-19T03:44:56.837Z,4.56
2019-01-19T03:47:38.749Z,4.53
2019-01-19T03:50:29.809Z,4.50
2019-01-19T03:53:18.672Z,4.56
2019-01-19T03:56:06.015Z,4.42
2019-01-19T03:58:56.931Z,4.27
2019-01-19T04:01:29.190Z,4.20
2019-01-19T04:04:02.099Z,4.20
2019-01-19T04:06:41.004Z,4.16
2019-01-19T04:09:13.600Z,4.16
2019-01-19T04:11:49.319Z,4.19
2019-01-19T04:14:38.941Z,4.22
2019-01-19T04:17:28.272Z,4.26
2019-01-19T04:20:06.956Z,4.23
2019-01-19T04:22:33.138Z,4.26
2019-01-19T04:25:02.857Z,4.24
2019-01-19T04:27:28.729Z,4.35
2019-01-19T04:29:54.576Z,4.35
2019-01-19T04:32:20.452Z,4.34
2019-01-19T04:34:46.336Z,4.34
2019-01-19T04:37:12.192Z,4.22
2019-01-19T04:39:38.069Z,4.24
2019-01-19T04:42:05.131Z,4.27
2019-01-19T04:44:31.027Z,4.13
2019-01-19T04:46:56.926Z,4.23
2019-01-19T04:49:22.839Z,4.23
2019-01-19T04:51:48.705Z,4.26
2019-01-19T04:54:15.702Z,4.34
2019-01-19T04:56:41.579Z,4.44
2019-01-19T04:59:07.459Z,4.19
2019-01-19T05:01:33.316Z,4.38
2019-01-19T05:03:59.227Z,4.35
2019-01-19T05:06:30.364Z,4.11
2019-01-19T05:08:52.993Z,4.09
2019-01-19T05:11:18.871Z,3.89
2019-01-19T05:13:44.852Z,3.95
2019-01-19T05:16:10.705Z,4.05
2019-01-19T05:18:36.699Z,4.14
2019-01-19T05:21:02.909Z,4.07
2019-01-19T05:23:28.994Z,4.12
2019-01-19T05:25:54.988Z,3.86
2019-01-19T05:28:20.909Z,3.94
2019-01-19T05:30:46.764Z,3.96
2019-01-19T05:33:12.617Z,3.93
2019-01-19T05:35:38.490Z,3.84
2019-01-19T05:38:04.365Z,3.87
2019-01-19T05:40:30.255Z,3.84
2019-01-19T05:42:56.176Z,3.77
2019-01-19T05:45:22.029Z,3.77
2019-01-19T05:47:47.886Z,3.63
2019-01-19T05:50:15.896Z,3.79
2019-01-19T05:52:41.766Z,3.78
2019-01-19T05:55:08.182Z,3.74
2019-01-19T05:57:34.060Z,3.71
2019-01-19T06:00:00.024Z,3.81
2019-01-19T06:02:27.578Z,3.88
2019-01-19T06:04:53.583Z,3.84
2019-01-19T06:07:19.577Z,3.85
2019-01-19T06:09:45.613Z,3.70
2019-01-19T06:12:11.507Z,3.82
2019-01-19T06:14:37.373Z,3.82
2019-01-19T06:17:03.267Z,3.66
2019-01-19T06:19:29.560Z,3.64
2019-01-19T06:21:56.537Z,3.65
2019-01-19T06:24:22.428Z,3.64
2019-01-19T06:26:48.293Z,3.51
2019-01-19T06:29:14.174Z,3.45
2019-01-19T06:31:40.066Z,3.55
2019-01-19T06:34:05.943Z,3.51
2019-01-19T06:36:31.833Z,3.66
2019-01-19T06:38:57.706Z,3.52
2019-01-19T06:41:23.586Z,3.49
2019-01-19T06:43:49.434Z,3.53
2019-01-19T06:46:15.347Z,3.46
2019-01-19T06:48:41.236Z,3.50
2019-01-19T06:51:07.220Z,3.61
2019-01-19T06:53:33.088Z,3.56
2019-01-19T06:55:59.328Z,3.72
2019-01-19T06:58:25.218Z,3.72
2019-01-19T07:00:53.015Z,3.55
2019-01-19T07:03:18.908Z,3.67
2019-01-19T07:05:44.785Z,3.58
2019-01-19T07:08:10.677Z,3.60
2019-01-19T07:10:36.535Z,3.56
2019-01-19T07:13:02.528Z,3.54
2019-01-19T07:15:28.429Z,3.66
2019-01-19T07:17:54.348Z,3.62
2019-01-19T07:20:23.420Z,3.67
2019-01-19T07:22:49.374Z,3.56
2019-01-19T07:25:15.268Z,3.54
2019-01-19T07:27:41.116Z,3.72
2019-01-19T07:30:12.713Z,3.59
2019-01-19T07:32:38.655Z,3.73
2019-01-19T07:35:04.491Z,3.73
2019-01-19T07:37:30.346Z,3.67
2019-01-19T07:39:56.208Z,3.83
2019-01-19T07:42:22.088Z,3.68
2019-01-19T07:44:47.979Z,3.77
2019-01-19T07:47:14.218Z,3.91
2019-01-19T07:49:40.111Z,3.92
2019-01-19T07:52:06.004Z,3.94
2019-01-19T07:54:31.898Z,3.95
2019-01-19T07:56:58.129Z,4.05
2019-01-19T07:59:23.987Z,4.10
2019-01-19T08:01:49.853Z,4.10
2019-01-19T08:04:15.715Z,4.08
2019-01-19T08:06:41.615Z,4.17
2019-01-19T08:09:07.481Z,4.08
2019-01-19T08:11:33.377Z,3.96
2019-01-19T08:13:59.252Z,3.93
2019-01-19T08:16:25.241Z,3.95
2019-01-19T08:18:51.096Z,3.93
2019-01-19T08:21:16.960Z,4.00
2019-01-19T08:23:42.823Z,4.08
2019-01-19T08:26:08.684Z,4.10
2019-01-19T08:28:34.594Z,4.21
2019-01-19T08:31:00.479Z,4.27
2019-01-19T08:33:26.342Z,4.27
2019-01-19T08:35:52.815Z,4.24
2019-01-19T08:38:18.697Z,4.33
2019-01-19T08:40:44.578Z,4.50
2019-01-19T08:43:12.349Z,4.27
2019-01-19T08:45:38.364Z,4.27
2019-01-19T08:48:04.296Z,4.47
2019-01-19T08:50:30.191Z,4.32
2019-01-19T08:52:56.061Z,4.13
2019-01-19T08:55:21.915Z,4.03
2019-01-19T08:57:48.663Z,3.99
2019-01-19T09:00:19.204Z,3.93
2019-01-19T09:02:45.078Z,3.63
2019-01-19T09:05:11.582Z,3.55
2019-01-19T09:07:37.450Z,3.53
2019-01-19T09:10:07.717Z,3.85
2019-01-19T09:12:33.644Z,4.16
2019-01-19T09:14:59.527Z,5.08
2019-01-19T09:17:25.433Z,4.69
2019-01-19T09:19:51.312Z,5.04
2019-01-19T09:22:17.171Z,4.44
2019-01-19T09:24:43.044Z,4.89
2019-01-19T09:27:08.913Z,3.87
2019-01-19T09:29:34.951Z,3.57
2019-01-19T09:32:00.826Z,3.68
2019-01-19T09:34:26.687Z,3.87
2019-01-19T09:36:52.603Z,3.93
2019-01-19T09:39:18.479Z,3.97
2019-01-19T09:41:44.615Z,4.02
2019-01-19T09:44:10.513Z,4.00
2019-01-19T09:46:36.509Z,4.00
2019-01-19T09:49:02.821Z,3.87
2019-01-19T09:51:29.092Z,4.00
2019-01-19T09:53:54.989Z,3.64
2019-01-19T09:56:20.882Z,3.63
2019-01-19T09:58:47.997Z,3.81
2019-01-19T10:01:13.881Z,3.60
2019-01-19T10:03:39.741Z,3.70
2019-01-19T10:06:05.641Z,3.86
2019-01-19T10:08:31.525Z,3.96
2019-01-19T10:10:57.645Z,4.11
2019-01-19T10:13:23.472Z,4.26
2019-01-19T10:15:49.340Z,3.78
2019-01-19T10:18:15.523Z,4.13
2019-01-19T10:20:41.809Z,4.03
2019-01-19T10:23:07.693Z,4.06
2019-01-19T10:25:33.597Z,4.77
2019-01-19T10:27:59.414Z,4.07
2019-01-19T10:30:31.231Z,4.29
2019-01-19T10:32:57.086Z,4.18
2019-01-19T10:35:22.982Z,4.12
2019-01-19T10:37:55.751Z,4.18
2019-01-19T10:40:17.331Z,4.07
2019-01-19T10:42:43.204Z,4.41
2019-01-19T10:45:12.377Z,4.50
2019-01-19T10:47:38.226Z,4.31
2019-01-19T10:50:07.901Z,4.43
2019-01-19T10:52:33.774Z,4.43
2019-01-19T10:54:59.663Z,4.52
2019-01-19T10:57:25.510Z,4.25
2019-01-19T10:59:52.235Z,4.15
2019-01-19T11:02:18.114Z,4.22
2019-01-19T11:04:44.013Z,4.23
2019-01-19T11:07:09.865Z,4.13
2019-01-19T11:09:35.765Z,4.21
2019-01-19T11:12:01.650Z,4.11
2019-01-19T11:14:27.497Z,4.12
2019-01-19T11:16:53.433Z,4.25
2019-01-19T11:19:19.281Z,4.27
2019-01-19T11:21:45.157Z,4.00
2019-01-19T11:24:11.014Z,4.19
2019-01-19T11:26:36.889Z,4.45
2019-01-19T11:29:02.752Z,4.35
2019-01-19T11:31:28.682Z,4.55
2019-01-19T11:33:54.550Z,4.42
2019-01-19T11:36:20.421Z,4.54
2019-01-19T11:38:47.144Z,4.57
2019-01-19T11:41:13.026Z,4.46
2019-01-19T11:43:38.895Z,4.49
2019-01-19T11:46:04.764Z,4.52
2019-01-19T11:48:31.049Z,4.64
2019-01-19T11:50:56.943Z,4.96
2019-01-19T11:53:22.821Z,5.00
2019-01-19T11:55:48.718Z,4.91
2019-01-19T11:58:14.562Z,5.02
2019-01-19T12:00:41.339Z,4.91
2019-01-19T12:03:07.190Z,4.85
2019-01-19T12:05:33.082Z,4.80
2019-01-19T12:07:58.943Z,4.72
2019-01-19T12:10:26.745Z,4.84
2019-01-19T12:12:52.595Z,4.90
2019-01-19T12:15:18.476Z,5.02
2019-01-19T12:17:44.397Z,4.87
2019-01-19T12:20:22.659Z,5.06
2019-01-19T12:22:48.586Z,4.95
2019-01-19T12:25:20.491Z,4.78
2019-01-19T12:27:48.800Z,4.82
2019-01-19T12:30:22.862Z,4.90
2019-01-19T12:32:48.732Z,4.72
2019-01-19T12:35:15.121Z,4.70
2019-01-19T12:37:41.129Z,4.99
2019-01-19T12:40:12.903Z,5.34
2019-01-19T12:43:01.041Z,5.32
2019-01-19T12:45:42.741Z,5.16
2019-01-19T12:48:08.621Z,5.24
2019-01-19T12:50:34.727Z,5.43
2019-01-19T12:53:00.786Z,5.95
2019-01-19T12:55:26.654Z,5.97
2019-01-19T12:57:52.569Z,6.13
2019-01-19T13:00:20.964Z,6.18
2019-01-19T13:02:48.115Z,5.87
2019-01-19T13:05:17.513Z,6.22
2019-01-19T13:07:44.087Z,6.75
2019-01-19T13:10:19.916Z,6.76
2019-01-19T13:12:46.322Z,6.66
2019-01-19T13:15:22.089Z,7.20
2019-01-19T13:18:04.075Z,6.92
2019-01-19T13:20:42.602Z,6.53
2019-01-19T13:23:18.108Z,6.78
2019-01-19T13:25:53.807Z,6.90
2019-01-19T13:28:35.957Z,6.45
2019-01-19T13:31:33.166Z,6.70
2019-01-19T13:34:14.899Z,6.53
2019-01-19T13:36:53.630Z,6.84
2019-01-19T13:39:29.241Z,6.48
2019-01-19T13:42:18.814Z,6.63
2019-01-19T13:45:04.150Z,6.17
2019-01-19T13:47:36.872Z,5.82
2019-01-19T13:50:35.523Z,5.56
2019-01-19T13:53:16.554Z,6.12
2019-01-19T13:56:06.250Z,5.82
2019-01-19T13:58:36.118Z,6.09
2019-01-19T14:01:27.105Z,5.24
2019-01-19T14:03:57.715Z,5.17
2019-01-19T14:06:36.184Z,5.36
2019-01-19T14:09:23.617Z,5.64
2019-01-19T14:12:11.374Z,5.90
2019-01-19T14:14:43.912Z,5.71
2019-01-19T14:17:36.532Z,5.73
2019-01-19T14:20:15.427Z,5.45
2019-01-19T14:22:47.965Z,5.65
2019-01-19T14:25:36.261Z,6.10
2019-01-19T14:28:12.149Z,6.11
2019-01-19T14:30:44.841Z,6.12
2019-01-19T14:33:23.730Z,5.92
2019-01-19T14:36:12.625Z,5.70
2019-01-19T14:38:56.842Z,6.09
2019-01-19T14:41:34.958Z,6.12
2019-01-19T14:44:23.005Z,6.42
2019-01-19T14:46:52.673Z,6.43
2019-01-19T14:49:34.407Z,6.59
2019-01-19T14:52:07.142Z,6.69
2019-01-19T14:54:48.011Z,6.73
2019-01-19T14:57:23.982Z,6.60
2019-01-19T14:59:56.707Z,6.59
2019-01-19T15:02:32.403Z,6.48
2019-01-19T15:05:02.986Z,6.38
2019-01-19T15:07:32.696Z,6.19
2019-01-19T15:10:13.693Z,5.75
2019-01-19T15:12:52.133Z,5.94
2019-01-19T15:15:27.632Z,6.09
2019-01-19T15:18:15.675Z,6.22
2019-01-19T15:20:51.646Z,6.18
2019-01-19T15:23:39.065Z,5.75
2019-01-19T15:26:14.991Z,5.50
2019-01-19T15:29:07.459Z,5.45
2019-01-19T15:31:49.435Z,5.37
2019-01-19T15:34:25.442Z,5.46
2019-01-19T15:37:11.822Z,5.36
2019-01-19T15:39:47.537Z,5.29
2019-01-19T15:42:29.534Z,5.04
2019-01-19T15:45:08.572Z,5.22
2019-01-19T15:47:55.206Z,5.11
2019-01-19T15:50:41.799Z,4.90
2019-01-19T15:53:28.406Z,4.90
2019-01-19T15:56:15.114Z,4.94
2019-01-19T15:59:01.718Z,4.90
2019-01-19T16:01:48.215Z,4.84
2019-01-19T16:04:35.122Z,4.80
2019-01-19T19:48:59.681Z,2.33
2019-01-19T19:51:59.640Z,2.30
2019-01-19T19:54:25.712Z,2.39
2019-01-19T19:56:51.607Z,2.31
2019-01-19T19:59:17.553Z,2.35
2019-01-19T20:01:43.440Z,2.41
2019-01-19T20:06:53.723Z,2.45
2019-01-19T20:09:20.618Z,2.51
2019-01-19T20:13:29.038Z,2.46
2019-01-19T20:15:56.231Z,2.51
2019-01-19T20:18:23.621Z,2.54
2019-01-19T20:20:51.155Z,2.52
2019-01-19T20:23:17.652Z,2.52
2019-01-19T20:25:44.696Z,2.52
2019-01-19T20:28:11.945Z,2.52
2019-01-19T20:30:39.109Z,2.56
2019-01-19T20:33:08.003Z,2.52
2019-01-19T20:35:35.011Z,2.67
2019-01-19T20:38:02.128Z,2.51
2019-01-19T20:40:29.123Z,2.54
2019-01-19T20:42:56.252Z,2.62
2019-01-19T20:45:23.032Z,2.62
2019-01-19T20:47:50.136Z,2.60
2019-01-19T20:50:16.764Z,2.60
2019-01-19T20:52:43.657Z,2.53
2019-01-19T20:57:51.197Z,2.60
2019-01-19T21:00:18.273Z,2.58
2019-01-19T21:02:44.267Z,2.44
2019-01-19T21:05:13.148Z,2.44
2019-01-19T21:07:39.036Z,2.45
2019-01-19T21:10:05.978Z,2.45
2019-01-19T21:12:31.966Z,2.49
2019-01-19T21:14:57.850Z,2.51
2019-01-19T21:17:23.720Z,2.51
2019-01-19T21:19:49.750Z,2.54
2019-01-19T21:22:15.620Z,2.48
2019-01-19T21:24:41.496Z,2.41
2019-01-19T21:27:07.535Z,2.49
2019-01-19T21:29:33.590Z,2.45
2019-01-19T21:31:59.455Z,2.52
2019-01-19T21:34:25.466Z,2.39
2019-01-19T21:36:51.430Z,2.38
2019-01-19T21:39:17.410Z,2.30
2019-01-19T21:41:43.331Z,2.30
2019-01-19T21:44:09.204Z,2.26
2019-01-19T21:46:35.107Z,2.27
2019-01-19T21:49:01.112Z,2.22
2019-01-19T21:51:26.981Z,2.20
2019-01-19T21:53:52.879Z,2.22
2019-01-19T21:56:18.811Z,2.09
2019-01-19T21:58:44.881Z,2.05
2019-01-19T22:01:10.748Z,2.06
2019-01-19T22:03:36.691Z,2.14
2019-01-19T22:06:02.554Z,2.08
2019-01-19T22:08:28.416Z,2.04
2019-01-19T22:10:54.384Z,2.02
2019-01-19T22:13:20.422Z,2.01
2019-01-19T22:15:46.725Z,1.97
2019-01-19T22:18:12.603Z,2.01
2019-01-19T22:20:38.478Z,1.96
2019-01-19T22:23:04.388Z,1.97
2019-01-19T22:25:30.257Z,1.90
2019-01-19T22:27:56.134Z,1.90
2019-01-19T22:30:22.929Z,1.91
2019-01-19T22:32:50.786Z,1.96
2019-01-19T22:35:16.640Z,2.03
2019-01-19T22:37:42.642Z,2.05
2019-01-19T22:40:12.170Z,2.05
2019-01-19T22:42:38.036Z,2.09
2019-01-19T22:45:07.314Z,2.00
2019-01-19T22:47:33.185Z,1.95
2019-01-19T22:49:59.126Z,1.90
2019-01-19T22:52:25.003Z,1.89
2019-01-19T22:54:50.856Z,1.80
2019-01-19T22:57:16.765Z,1.75
2019-01-19T22:59:42.660Z,1.68
2019-01-19T23:02:08.518Z,1.66
2019-01-19T23:04:34.399Z,1.58
2019-01-19T23:07:00.305Z,1.57
2019-01-19T23:09:26.165Z,1.55
2019-01-19T23:11:52.140Z,1.49
2019-01-19T23:14:21.927Z,1.45
2019-01-19T23:16:47.802Z,1.49
2019-01-19T23:19:14.063Z,1.54
2019-01-19T23:21:39.913Z,1.57
2019-01-19T23:24:05.785Z,1.57
2019-01-19T23:26:32.451Z,1.65
2019-01-19T23:28:58.318Z,1.64
2019-01-19T23:31:24.223Z,1.71
2019-01-19T23:33:50.079Z,1.71
2019-01-19T23:36:15.946Z,1.61
2019-01-19T23:38:41.891Z,1.44
2019-01-19T23:41:09.148Z,1.52
2019-01-19T23:43:35.397Z,1.62
2019-01-19T23:46:01.257Z,1.54
2019-01-19T23:48:27.169Z,1.57
2019-01-19T23:50:53.050Z,1.51
2019-01-19T23:53:18.987Z,1.50
2019-01-19T23:55:44.839Z,1.43
2019-01-19T23:58:10.759Z,1.38
